Terminal Aerodrome Forecast
Issued by NWS Louisville, KY

Home | Current Version | Previous Version | Text Only | Print | Product List | Glossary On
Versions: 1 2 3 4 5 6 7 8 9 10 11 12 13 14 15 16 17 18
000
FTUS43 KLMK 040500
TAFBWG
TAF
KBWG 040535Z 0406/0506 VRB03KT 5SM BR BKN012
     FM040700 VRB03KT 3SM BR VCSH BKN007
     FM041400 24005KT P6SM BKN025
     FM041600 24005KT P6SM BKN040=

USA.gov is the U.S. government's official web portal to all federal, state and local government web resources and services.